Time;durP1;ratioP1;P1;durP2;ratioP2;P2;SDS_P1;SDS_P2;PMS_P1;PMS_P2;Temp;Humidity;BMP_temperature;BMP_pressure;BME280_temperature;BME280_humidity;BME280_pressure;Samples;Min_cycle;Max_cycle;Signal;HPM_P1;HPM_P2
2022/11/01 00:01:40;;;;;;;3.33;2.73;;;12.60;99.90;;;;;;5109569;28;21060;-82
2022/11/01 00:04:07;;;;;;;3.60;2.80;;;12.60;99.90;;;;;;5110198;28;20620;-82
2022/11/01 00:06:34;;;;;;;3.37;3.03;;;12.60;99.90;;;;;;5106341;28;20619;-82
2022/11/01 00:09:01;;;;;;;2.70;2.47;;;12.60;99.90;;;;;;5110108;28;20675;-82
2022/11/01 00:11:30;;;;;;;2.57;2.40;;;13.20;99.90;;;;;;5097342;28;20631;-82
2022/11/01 00:13:57;;;;;;;4.27;3.27;;;13.10;99.90;;;;;;5089523;28;20716;-82
2022/11/01 00:16:24;;;;;;;2.90;2.70;;;12.80;99.90;;;;;;5094638;28;20620;-82
2022/11/01 00:18:51;;;;;;;3.60;3.30;;;12.50;99.90;;;;;;5109070;28;21104;-81
2022/11/01 00:21:18;;;;;;;4.60;3.67;;;12.50;99.90;;;;;;5108015;28;21207;-81
2022/11/01 00:23:45;;;;;;;2.53;2.33;;;;;;;;;;5108682;28;21052;-82
2022/11/01 00:26:16;;;;;;;5.40;4.93;;;12.50;99.90;;;;;;5109258;28;20758;-82
2022/11/01 00:28:44;;;;;;;4.77;4.00;;;12.50;99.90;;;;;;5109042;28;20656;-82
2022/11/01 00:31:12;;;;;;;3.90;3.00;;;12.60;99.90;;;;;;5094267;28;21096;-82
2022/11/01 00:33:39;;;;;;;3.73;3.13;;;12.70;99.90;;;;;;5095835;28;21207;-82
2022/11/01 00:36:07;;;;;;;3.50;2.17;;;12.60;99.90;;;;;;5101985;28;21170;-82
2022/11/01 00:38:34;;;;;;;3.80;3.20;;;12.60;99.90;;;;;;5086602;28;20670;-82
2022/11/01 00:41:02;;;;;;;4.00;2.63;;;12.60;99.90;;;;;;5104507;28;20701;-84
2022/11/01 00:43:30;;;;;;;8.13;3.20;;;12.60;99.90;;;;;;5107421;28;20637;-82
2022/11/01 00:45:58;;;;;;;3.77;3.33;;;12.60;99.90;;;;;;5106753;28;20682;-82
2022/11/01 00:48:25;;;;;;;5.10;3.63;;;12.70;99.90;;;;;;5107576;28;20715;-81
2022/11/01 00:50:52;;;;;;;3.77;3.00;;;;;;;;;;5094587;28;20779;-81
2022/11/01 00:53:19;;;;;;;3.70;3.40;;;12.70;99.90;;;;;;5087372;28;20727;-83
2022/11/01 00:55:46;;;;;;;3.83;3.47;;;12.60;99.90;;;;;;5098650;28;20725;-83
2022/11/01 00:58:13;;;;;;;4.17;3.30;;;12.60;99.90;;;;;;5108078;28;20669;-83
2022/11/01 01:00:40;;;;;;;7.90;4.40;;;12.60;99.90;;;;;;5097284;28;20746;-83
2022/11/01 01:03:08;;;;;;;6.40;3.73;;;12.80;99.90;;;;;;5108646;28;21064;-83
2022/11/01 01:05:35;;;;;;;4.10;3.80;;;12.60;99.90;;;;;;5098578;28;20620;-83
2022/11/01 01:08:03;;;;;;;4.50;3.90;;;12.60;99.90;;;;;;5087714;28;20723;-82
2022/11/01 01:10:30;;;;;;;4.90;4.20;;;12.60;99.90;;;;;;5089534;28;20664;-83
2022/11/01 01:12:56;;;;;;;18.20;5.13;;;12.60;99.90;;;;;;5089385;28;20719;-83
2022/11/01 01:15:23;;;;;;;4.50;3.20;;;12.60;99.90;;;;;;5092051;28;20656;-82
2022/11/01 01:17:51;;;;;;;4.80;3.70;;;12.60;99.90;;;;;;5104330;28;20658;-82
2022/11/01 01:20:20;;;;;;;4.53;3.40;;;12.50;99.90;;;;;;5108865;28;21244;-82
2022/11/01 01:22:46;;;;;;;4.20;3.80;;;12.60;99.90;;;;;;5100261;28;20628;-83
2022/11/01 01:25:14;;;;;;;4.77;4.13;;;12.50;99.90;;;;;;5109703;28;20715;-82
2022/11/01 01:27:40;;;;;;;4.67;3.73;;;12.40;99.90;;;;;;5107519;28;20663;-82
2022/11/01 01:30:08;;;;;;;9.40;4.80;;;12.50;99.90;;;;;;5109755;28;20750;-82
2022/11/01 01:32:36;;;;;;;4.33;3.87;;;12.40;99.90;;;;;;5100080;28;20705;-84
2022/11/01 01:35:03;;;;;;;4.83;3.90;;;12.40;99.90;;;;;;5096946;28;20656;-83
2022/11/01 01:37:32;;;;;;;4.27;3.57;;;12.50;99.90;;;;;;5093941;28;20635;-83
2022/11/01 01:39:59;;;;;;;3.70;3.27;;;12.60;99.90;;;;;;5108760;28;20638;-82
2022/11/01 01:42:29;;;;;;;4.70;3.63;;;12.50;99.90;;;;;;5104638;28;20757;-83
2022/11/01 01:45:19;;;;;;;12.73;4.00;;;12.50;99.90;;;;;;5107939;28;20627;-83
2022/11/01 01:47:49;;;;;;;7.70;3.37;;;12.50;99.90;;;;;;5107390;28;20928;-83
2022/11/01 01:50:22;;;;;;;5.20;4.80;;;12.50;99.90;;;;;;5108165;28;20656;-82
2022/11/01 01:52:54;;;;;;;4.83;4.37;;;12.50;99.90;;;;;;5102061;28;20597;-83
2022/11/01 01:55:23;;;;;;;4.70;3.70;;;12.80;99.90;;;;;;5087958;28;20668;-82
2022/11/01 01:57:52;;;;;;;4.80;2.90;;;12.80;99.90;;;;;;5096106;28;20645;-82
2022/11/01 02:00:19;;;;;;;3.90;3.60;;;12.50;99.90;;;;;;5111961;28;20748;-82
2022/11/01 02:02:46;;;;;;;5.03;4.47;;;12.50;99.90;;;;;;5111575;28;20619;-82
2022/11/01 02:05:19;;;;;;;3.60;3.30;;;12.50;99.90;;;;;;5111776;28;20648;-83
2022/11/01 02:07:46;;;;;;;5.20;3.00;;;12.60;99.90;;;;;;5108911;28;20727;-83
2022/11/01 02:10:15;;;;;;;3.87;3.17;;;12.50;99.90;;;;;;5112268;28;20679;-83
2022/11/01 02:12:47;;;;;;;4.53;3.53;;;12.50;99.90;;;;;;5110925;28;20652;-83
2022/11/01 02:15:15;;;;;;;4.40;4.03;;;13.00;99.90;;;;;;5100915;28;20630;-83
2022/11/01 02:17:53;;;;;;;4.93;3.40;;;12.50;99.90;;;;;;5111339;28;20639;-82
2022/11/01 02:20:47;;;;;;;4.23;3.30;;;12.50;99.90;;;;;;5110808;28;20630;-83
2022/11/01 02:23:46;;;;;;;4.17;3.33;;;12.50;99.90;;;;;;5100942;28;20639;-83
2022/11/01 02:26:52;;;;;;;3.50;3.17;;;12.50;99.90;;;;;;5074833;28;20627;-82
2022/11/01 02:29:41;;;;;;;4.67;3.00;;;12.70;99.90;;;;;;5100417;28;20620;-82
2022/11/01 02:32:17;;;;;;;4.10;3.63;;;12.60;99.90;;;;;;5091634;28;20612;-83
2022/11/01 02:34:49;;;;;;;3.67;3.13;;;12.60;99.90;;;;;;5108211;28;20627;-82
2022/11/01 02:37:25;;;;;;;4.67;3.03;;;13.00;99.90;;;;;;5093518;28;20974;-83
2022/11/01 02:39:57;;;;;;;2.87;2.67;;;12.70;99.90;;;;;;5106134;28;20606;-84
2022/11/01 02:42:28;;;;;;;3.37;2.83;;;12.70;99.90;;;;;;5108678;28;20612;-84
2022/11/01 02:45:03;;;;;;;3.33;3.03;;;12.70;99.90;;;;;;5105560;28;20627;-83
2022/11/01 02:47:33;;;;;;;3.90;2.80;;;12.70;99.90;;;;;;5108252;28;20626;-83
2022/11/01 02:50:03;;;;;;;3.93;3.53;;;12.70;99.90;;;;;;5108951;28;20715;-82
2022/11/01 02:52:35;;;;;;;3.60;3.00;;;12.70;99.90;;;;;;5108998;28;20612;-82
2022/11/01 02:55:28;;;;;;;3.27;2.97;;;12.80;99.90;;;;;;5091300;28;20642;-82
2022/11/01 02:57:57;;;;;;;5.13;2.70;;;12.80;99.90;;;;;;5096425;28;20619;-83
2022/11/01 03:00:27;;;;;;;2.63;2.20;;;12.80;99.90;;;;;;5111378;28;20616;-82
2022/11/01 03:03:03;;;;;;;3.27;2.90;;;12.80;99.90;;;;;;5106710;28;20663;-83
2022/11/01 03:05:41;;;;;;;3.97;2.83;;;12.80;99.90;;;;;;5091308;28;20654;-82
2022/11/01 03:08:11;;;;;;;4.00;2.67;;;12.80;99.90;;;;;;5096955;28;20930;-82
2022/11/01 03:10:45;;;;;;;2.37;2.17;;;12.80;99.90;;;;;;5110690;28;21066;-83
2022/11/01 03:13:27;;;;;;;2.30;2.13;;;12.80;99.90;;;;;;5104870;28;20628;-83
2022/11/01 03:16:02;;;;;;;3.10;2.80;;;12.90;99.90;;;;;;5092662;28;20609;-83
2022/11/01 03:18:35;;;;;;;2.40;2.20;;;12.90;99.90;;;;;;5109873;28;20657;-82
2022/11/01 03:21:14;;;;;;;3.63;3.10;;;12.90;99.90;;;;;;5111159;28;21038;-83
2022/11/01 03:23:46;;;;;;;2.20;2.00;;;12.90;99.90;;;;;;5110663;28;20627;-82
2022/11/01 03:26:19;;;;;;;2.90;2.43;;;12.90;99.90;;;;;;5111571;28;20603;-83
2022/11/01 03:28:49;;;;;;;2.57;1.90;;;12.90;99.90;;;;;;5101375;28;20990;-82
2022/11/01 03:31:20;;;;;;;3.23;2.70;;;12.90;99.90;;;;;;5090851;28;20684;-83
2022/11/01 03:33:52;;;;;;;2.50;2.30;;;13.00;99.90;;;;;;5099307;28;20693;-82
2022/11/01 03:36:23;;;;;;;2.33;2.13;;;12.90;99.90;;;;;;5101833;28;20628;-82
2022/11/01 03:38:54;;;;;;;4.10;3.17;;;12.90;99.90;;;;;;5098971;28;20658;-83
2022/11/01 03:41:23;;;;;;;3.83;2.40;;;12.90;99.90;;;;;;5111603;28;20661;-83
2022/11/01 03:43:50;;;;;;;3.00;2.17;;;12.90;99.90;;;;;;5101301;28;20629;-83
2022/11/01 03:46:17;;;;;;;5.13;2.80;;;;;;;;;;5090584;28;21131;-83
2022/11/01 03:48:44;;;;;;;3.13;2.50;;;12.90;99.90;;;;;;5090709;28;20628;-83
2022/11/01 03:51:13;;;;;;;3.90;3.57;;;13.00;99.90;;;;;;5090206;28;21037;-83
2022/11/01 03:53:40;;;;;;;4.83;3.03;;;13.10;99.90;;;;;;5097087;28;20632;-82
2022/11/01 03:56:07;;;;;;;2.37;2.17;;;13.00;99.90;;;;;;5110141;28;20616;-82
2022/11/01 03:58:45;;;;;;;2.23;1.93;;;13.00;99.90;;;;;;5106815;28;20635;-81
2022/11/01 04:01:14;;;;;;;4.13;2.03;;;13.10;99.90;;;;;;5111355;28;20622;-82
2022/11/01 04:03:42;;;;;;;5.77;2.60;;;13.20;99.90;;;;;;5107618;28;20681;-81
2022/11/01 04:06:11;;;;;;;3.33;1.60;;;13.10;99.90;;;;;;5088937;28;20631;-81
2022/11/01 04:08:40;;;;;;;2.50;2.30;;;13.20;99.90;;;;;;5090906;28;20682;-81
2022/11/01 04:11:07;;;;;;;6.43;1.37;;;13.20;99.90;;;;;;5088854;28;20652;-82
2022/11/01 04:13:34;;;;;;;4.30;3.37;;;13.30;99.90;;;;;;5094541;28;20703;-82
2022/11/01 04:21:36;;;;;;;2.80;1.40;;;13.40;99.90;;;;;;5051205;28;20714;-81
2022/11/01 04:24:03;;;;;;;2.43;1.50;;;13.50;99.90;;;;;;5109440;28;21048;-82
2022/11/01 04:26:30;;;;;;;5.30;3.80;;;13.50;99.90;;;;;;5110386;28;20662;-82
2022/11/01 04:28:57;;;;;;;2.20;1.60;;;13.60;99.90;;;;;;5099840;28;20694;-81
2022/11/01 04:31:25;;;;;;;1.20;1.10;;;13.60;99.90;;;;;;5090015;28;20931;-82
2022/11/01 04:33:52;;;;;;;2.63;1.90;;;13.60;99.90;;;;;;5098751;28;20616;-82
2022/11/01 04:36:19;;;;;;;1.93;1.50;;;13.60;99.90;;;;;;5100129;28;20620;-81
2022/11/01 04:38:50;;;;;;;2.20;2.00;;;13.70;99.90;;;;;;5097562;28;20655;-81
2022/11/01 04:41:18;;;;;;;1.83;1.20;;;13.70;99.90;;;;;;5108637;28;20640;-81
2022/11/01 04:43:45;;;;;;;1.60;1.50;;;13.70;99.90;;;;;;5102502;28;21189;-82
2022/11/01 04:46:12;;;;;;;2.80;1.80;;;13.70;99.90;;;;;;5089857;28;20649;-81
2022/11/01 04:48:39;;;;;;;1.47;1.37;;;13.70;99.90;;;;;;5088779;28;20649;-82
2022/11/01 04:51:06;;;;;;;1.20;1.10;;;13.70;99.90;;;;;;5089535;28;20741;-81
2022/11/01 04:53:33;;;;;;;1.20;1.10;;;13.70;99.90;;;;;;5093831;28;20613;-81
2022/11/01 04:56:03;;;;;;;3.87;1.80;;;13.80;99.90;;;;;;5109926;28;20655;-82
2022/11/01 04:58:30;;;;;;;2.07;1.50;;;13.80;99.90;;;;;;5107812;28;21184;-81
2022/11/01 05:00:57;;;;;;;3.20;1.83;;;13.90;99.90;;;;;;5109533;28;21418;-83
2022/11/01 05:03:24;;;;;;;2.90;1.30;;;14.00;99.90;;;;;;5109236;28;20646;-82
2022/11/01 05:05:52;;;;;;;4.13;2.10;;;13.90;99.90;;;;;;5109270;28;20646;-82
2022/11/01 05:08:19;;;;;;;2.73;2.60;;;13.90;99.90;;;;;;5108481;28;20651;-82
2022/11/01 05:10:46;;;;;;;1.33;1.23;;;13.90;99.90;;;;;;5088407;28;20641;-82
2022/11/01 05:13:14;;;;;;;1.23;1.13;;;14.00;99.90;;;;;;5089780;28;20741;-82
2022/11/01 05:15:41;;;;;;;4.37;1.20;;;14.00;99.90;;;;;;5091116;28;20653;-82
2022/11/01 05:18:08;;;;;;;2.27;1.30;;;14.10;99.90;;;;;;5106217;28;20715;-81
2022/11/01 05:20:34;;;;;;;0.97;0.87;;;14.00;99.90;;;;;;5109734;28;20623;-82
2022/11/01 05:23:03;;;;;;;1.33;1.20;;;14.00;99.90;;;;;;5098672;28;20977;-82
2022/11/01 05:25:30;;;;;;;2.53;0.93;;;14.10;99.90;;;;;;5110287;28;20618;-82
2022/11/01 05:28:03;;;;;;;1.30;1.20;;;14.00;99.90;;;;;;5108036;28;20620;-82
2022/11/01 05:30:32;;;;;;;1.53;1.43;;;14.00;99.90;;;;;;5110300;28;21217;-82
2022/11/01 05:33:00;;;;;;;1.30;1.20;;;14.00;99.90;;;;;;5112568;28;20620;-81
2022/11/01 05:35:28;;;;;;;2.10;0.90;;;14.00;99.90;;;;;;5113625;28;21173;-81
2022/11/01 05:37:55;;;;;;;2.30;0.80;;;14.30;99.90;;;;;;5111960;28;20673;-81
2022/11/01 05:40:23;;;;;;;1.93;1.27;;;14.10;99.90;;;;;;5113045;28;21174;-81
2022/11/01 05:42:50;;;;;;;0.50;0.47;;;14.20;99.90;;;;;;5102878;28;20996;-81
2022/11/01 05:45:17;;;;;;;0.70;0.70;;;14.30;99.90;;;;;;5093263;28;20986;-81
2022/11/01 05:47:45;;;;;;;0.77;0.77;;;14.30;99.90;;;;;;5094187;28;20616;-82
2022/11/01 05:50:14;;;;;;;1.10;1.00;;;14.20;99.90;;;;;;5092935;28;20608;-82
2022/11/01 05:52:42;;;;;;;1.60;1.03;;;14.50;99.90;;;;;;5099652;28;20694;-81
2022/11/01 05:55:09;;;;;;;1.00;0.70;;;14.30;99.90;;;;;;5112004;28;20647;-82
2022/11/01 05:57:36;;;;;;;0.50;0.40;;;14.20;99.90;;;;;;5105490;28;21208;-82
2022/11/01 06:00:04;;;;;;;0.70;0.67;;;14.50;99.90;;;;;;5107315;28;21110;-82
2022/11/01 06:02:32;;;;;;;0.80;0.80;;;14.20;99.90;;;;;;5111853;28;20688;-82
2022/11/01 06:05:00;;;;;;;0.57;0.57;;;14.20;99.90;;;;;;5112156;28;20653;-82
2022/11/01 06:07:27;;;;;;;0.50;0.50;;;14.20;99.90;;;;;;5099137;28;20666;-82
2022/11/01 06:09:54;;;;;;;0.90;0.80;;;14.90;99.90;;;;;;5092037;28;20715;-82
2022/11/01 06:12:24;;;;;;;1.60;1.40;;;14.20;99.90;;;;;;5100282;28;20647;-81
2022/11/01 06:14:51;;;;;;;0.50;0.50;;;14.50;99.90;;;;;;5101487;28;20632;-82
2022/11/01 06:17:18;;;;;;;0.40;0.40;;;14.10;99.90;;;;;;5099361;28;20691;-81
2022/11/01 06:19:46;;;;;;;1.00;0.67;;;14.10;99.90;;;;;;5111701;28;20654;-82
2022/11/01 06:22:14;;;;;;;0.40;0.40;;;14.10;99.90;;;;;;5111436;28;20607;-84
2022/11/01 06:24:42;;;;;;;0.73;0.50;;;14.10;99.90;;;;;;5111505;28;21250;-82
2022/11/01 06:27:09;;;;;;;0.63;0.40;;;;;;;;;;5111504;28;20591;-82
2022/11/01 06:29:36;;;;;;;0.80;0.40;;;14.10;99.90;;;;;;5110434;28;20889;-82
2022/11/01 06:32:04;;;;;;;0.40;0.33;;;14.10;99.90;;;;;;5111833;28;20673;-82
2022/11/01 06:34:31;;;;;;;0.50;0.40;;;14.10;99.90;;;;;;5109681;28;21224;-83
2022/11/01 06:36:58;;;;;;;0.77;0.77;;;14.00;99.90;;;;;;5110568;28;20632;-82
2022/11/01 06:39:27;;;;;;;1.07;0.53;;;14.10;99.90;;;;;;5110431;28;20631;-82
2022/11/01 06:41:54;;;;;;;0.40;0.30;;;14.10;99.90;;;;;;5110798;28;20660;-81
2022/11/01 06:44:22;;;;;;;0.40;0.30;;;14.20;99.90;;;;;;5096779;28;20639;-82
2022/11/01 06:46:49;;;;;;;0.73;0.60;;;14.10;99.90;;;;;;5090043;28;20630;-83
2022/11/01 06:49:15;;;;;;;0.50;0.50;;;14.10;99.90;;;;;;5092057;28;20663;-84
2022/11/01 06:51:42;;;;;;;2.23;0.50;;;14.10;99.90;;;;;;5090599;28;21049;-82
2022/11/01 06:54:09;;;;;;;0.80;0.60;;;14.10;99.90;;;;;;5100823;28;20739;-82
2022/11/01 06:56:38;;;;;;;0.40;0.30;;;14.10;99.90;;;;;;5105990;28;20635;-81
2022/11/01 06:59:04;;;;;;;0.60;0.60;;;14.00;99.90;;;;;;5097729;28;20653;-81
2022/11/01 07:01:32;;;;;;;0.40;0.40;;;;;;;;;;5110158;28;20699;-82
2022/11/01 07:03:59;;;;;;;0.70;0.60;;;;;;;;;;5110732;28;20599;-82
2022/11/01 07:06:29;;;;;;;0.43;0.40;;;14.10;99.90;;;;;;5095938;28;20809;-82
2022/11/01 07:08:56;;;;;;;1.20;0.80;;;14.10;99.90;;;;;;5093060;28;21002;-84
2022/11/01 07:11:23;;;;;;;1.63;0.93;;;14.10;99.90;;;;;;5091523;28;21253;-82
2022/11/01 07:13:51;;;;;;;0.40;0.30;;;14.70;99.90;;;;;;5090588;28;20974;-82
2022/11/01 07:16:19;;;;;;;0.60;0.60;;;14.30;99.90;;;;;;5094164;28;20837;-83
2022/11/01 07:18:45;;;;;;;0.40;0.40;;;14.10;99.90;;;;;;5098708;28;21169;-82
2022/11/01 07:21:12;;;;;;;1.53;0.50;;;14.20;99.90;;;;;;5096996;28;20742;-82
2022/11/01 07:23:39;;;;;;;0.40;0.30;;;14.00;99.90;;;;;;5110650;28;20612;-82
2022/11/01 07:26:06;;;;;;;0.43;0.43;;;14.10;99.90;;;;;;5110250;28;20673;-82
2022/11/01 07:28:33;;;;;;;1.33;0.57;;;14.20;99.90;;;;;;5110043;28;20596;-82
2022/11/01 07:31:02;;;;;;;0.60;0.40;;;14.20;99.90;;;;;;5109796;28;20645;-82
2022/11/01 07:33:29;;;;;;;0.60;0.50;;;14.20;99.90;;;;;;5109482;28;20613;-82
2022/11/01 07:35:56;;;;;;;0.30;0.30;;;14.30;99.90;;;;;;5109572;28;20623;-82
2022/11/01 07:38:23;;;;;;;0.43;0.30;;;;;;;;;;5109131;28;21252;-82
2022/11/01 07:40:52;;;;;;;0.63;0.63;;;14.20;99.90;;;;;;5109069;28;20657;-83
2022/11/01 07:43:19;;;;;;;0.50;0.27;;;14.30;99.90;;;;;;5109771;28;20620;-82
2022/11/01 07:45:46;;;;;;;0.50;0.50;;;14.30;99.90;;;;;;5109803;28;20615;-82
2022/11/01 07:48:16;;;;;;;0.40;0.37;;;14.30;99.90;;;;;;5109399;28;20608;-82
2022/11/01 07:50:44;;;;;;;0.47;0.30;;;14.40;99.90;;;;;;5110060;28;20604;-82
2022/11/01 07:53:13;;;;;;;0.30;0.30;;;14.50;99.90;;;;;;5109726;28;20667;-82
2022/11/01 07:55:41;;;;;;;1.43;0.50;;;14.50;99.90;;;;;;5108517;28;21100;-82
2022/11/01 07:58:09;;;;;;;0.67;0.40;;;14.60;99.90;;;;;;5108867;28;21384;-82
2022/11/01 08:00:37;;;;;;;0.70;0.50;;;14.60;99.90;;;;;;5109978;28;20631;-82
2022/11/01 08:03:05;;;;;;;0.47;0.47;;;14.50;99.90;;;;;;5109657;28;20618;-82
2022/11/01 08:05:34;;;;;;;1.87;0.33;;;14.70;99.90;;;;;;5110311;28;20628;-82
2022/11/01 08:08:01;;;;;;;0.70;0.70;;;;;;;;;;5109939;28;20612;-82
2022/11/01 08:10:29;;;;;;;0.50;0.50;;;14.80;99.90;;;;;;5111238;28;20616;-83
2022/11/01 08:13:02;;;;;;;0.60;0.30;;;14.90;99.90;;;;;;5110709;28;21236;-82
2022/11/01 08:15:29;;;;;;;0.67;0.43;;;14.90;99.90;;;;;;5109856;28;20666;-82
2022/11/01 08:17:56;;;;;;;0.50;0.30;;;14.80;99.90;;;;;;5107492;28;20739;-82
2022/11/01 08:20:24;;;;;;;0.30;0.30;;;14.80;99.90;;;;;;5093895;28;20723;-82
2022/11/01 08:22:52;;;;;;;1.53;0.67;;;14.80;99.90;;;;;;5098661;28;20627;-82
2022/11/01 08:25:20;;;;;;;0.40;0.30;;;14.80;99.90;;;;;;5108474;28;21240;-82
2022/11/01 08:27:47;;;;;;;0.50;0.50;;;14.80;99.90;;;;;;5108823;28;20651;-82
2022/11/01 08:30:15;;;;;;;0.53;0.53;;;14.80;99.90;;;;;;5098058;28;20693;-82
2022/11/01 08:32:42;;;;;;;0.50;0.40;;;15.20;99.90;;;;;;5101794;28;20659;-82
2022/11/01 08:35:10;;;;;;;0.50;0.40;;;15.00;99.90;;;;;;5094610;28;20717;-82
2022/11/01 08:37:37;;;;;;;0.90;0.53;;;15.00;99.90;;;;;;5089306;28;20617;-82
2022/11/01 08:40:07;;;;;;;0.50;0.43;;;15.00;99.90;;;;;;5106640;28;20620;-82
2022/11/01 08:42:33;;;;;;;0.50;0.47;;;15.00;99.90;;;;;;5090207;28;20743;-82
2022/11/01 08:45:01;;;;;;;0.40;0.37;;;;;;;;;;5102243;28;21441;-82
2022/11/01 08:47:27;;;;;;;0.57;0.40;;;15.00;99.90;;;;;;5097404;28;20661;-82
2022/11/01 08:49:54;;;;;;;0.40;0.40;;;15.20;99.90;;;;;;5089559;28;20628;-81
2022/11/01 08:52:21;;;;;;;1.23;0.33;;;15.10;99.90;;;;;;5108874;28;20759;-81
2022/11/01 08:54:48;;;;;;;0.50;0.30;;;15.10;99.90;;;;;;5096307;28;20993;-81
2022/11/01 08:57:16;;;;;;;1.07;0.30;;;15.20;99.90;;;;;;5088396;28;20700;-82
2022/11/01 08:59:43;;;;;;;0.30;0.30;;;15.20;99.90;;;;;;5105887;28;20727;-81
2022/11/01 09:02:11;;;;;;;0.60;0.40;;;15.30;99.90;;;;;;5108858;28;21188;-81
2022/11/01 09:04:37;;;;;;;1.10;0.47;;;15.30;99.90;;;;;;5090869;28;20646;-81
2022/11/01 09:07:04;;;;;;;0.30;0.30;;;15.20;99.90;;;;;;5099020;28;20696;-81
2022/11/01 09:09:31;;;;;;;0.30;0.20;;;15.20;99.90;;;;;;5096257;28;21294;-82
2022/11/01 09:11:58;;;;;;;0.40;0.40;;;15.30;99.90;;;;;;5107506;28;20693;-81
2022/11/01 09:14:26;;;;;;;0.30;0.20;;;15.20;99.90;;;;;;5101781;28;20631;-81
2022/11/01 09:16:53;;;;;;;0.77;0.37;;;15.20;99.90;;;;;;5097569;28;20711;-81
2022/11/01 09:19:20;;;;;;;0.30;0.30;;;15.30;99.90;;;;;;5095829;28;21214;-81
2022/11/01 09:21:47;;;;;;;0.47;0.30;;;15.30;99.90;;;;;;5090897;28;20666;-81
2022/11/01 09:24:16;;;;;;;0.30;0.30;;;15.30;99.90;;;;;;5102414;28;21214;-81
2022/11/01 09:26:43;;;;;;;0.57;0.30;;;15.30;99.90;;;;;;5099710;28;20623;-80
2022/11/01 09:29:10;;;;;;;0.63;0.60;;;15.40;99.90;;;;;;5098805;28;20621;-81
2022/11/01 09:31:39;;;;;;;0.40;0.30;;;15.40;99.90;;;;;;5097899;28;20716;-81
2022/11/01 09:34:06;;;;;;;0.70;0.50;;;15.40;99.90;;;;;;5108539;28;21042;-81
2022/11/01 09:36:33;;;;;;;0.60;0.50;;;15.40;99.90;;;;;;5107994;28;20620;-81
2022/11/01 09:39:00;;;;;;;0.43;0.27;;;15.60;99.90;;;;;;5108246;28;20639;-81
2022/11/01 09:41:32;;;;;;;0.60;0.60;;;15.70;99.90;;;;;;5107160;28;21241;-81
2022/11/01 09:44:01;;;;;;;0.37;0.30;;;15.60;99.90;;;;;;5108759;28;21284;-80
2022/11/01 09:46:31;;;;;;;0.50;0.40;;;15.80;99.90;;;;;;5107813;28;21001;-81
2022/11/01 09:49:02;;;;;;;0.37;0.27;;;15.80;99.90;;;;;;5107877;28;21415;-81
2022/11/01 09:51:29;;;;;;;0.40;0.30;;;15.80;99.90;;;;;;5107861;28;20651;-82
2022/11/01 09:53:59;;;;;;;1.17;0.50;;;15.90;99.90;;;;;;5106585;28;20670;-82
2022/11/01 09:56:30;;;;;;;0.60;0.30;;;16.00;99.90;;;;;;5107548;28;21240;-80
2022/11/01 09:59:08;;;;;;;0.40;0.40;;;16.00;99.90;;;;;;5098677;28;20664;-81
2022/11/01 10:01:43;;;;;;;0.90;0.50;;;16.20;99.90;;;;;;5108798;28;20722;-81
2022/11/01 10:04:25;;;;;;;0.40;0.40;;;16.30;99.90;;;;;;5107439;28;21236;-81
2022/11/01 10:06:59;;;;;;;1.03;1.03;;;16.30;99.90;;;;;;5093184;28;20665;-81
2022/11/01 10:09:33;;;;;;;0.40;0.40;;;16.30;99.90;;;;;;5095395;28;20612;-81
2022/11/01 10:12:16;;;;;;;0.40;0.40;;;16.40;99.90;;;;;;5095137;28;20739;-81
2022/11/01 10:14:57;;;;;;;0.50;0.40;;;16.40;99.90;;;;;;5099629;28;20674;-81
2022/11/01 10:17:42;;;;;;;0.53;0.53;;;16.50;99.90;;;;;;5096888;28;21064;-81
2022/11/01 10:20:13;;;;;;;0.30;0.30;;;16.50;99.90;;;;;;5111844;28;21157;-81
2022/11/01 10:22:43;;;;;;;0.50;0.33;;;16.60;99.90;;;;;;5108484;28;20608;-81
2022/11/01 10:25:20;;;;;;;0.57;0.50;;;16.60;99.90;;;;;;5095313;28;21046;-81
2022/11/01 10:27:53;;;;;;;0.50;0.50;;;16.60;99.90;;;;;;5105206;28;20625;-81
2022/11/01 10:30:21;;;;;;;0.60;0.53;;;16.60;99.90;;;;;;5094066;28;20613;-84
2022/11/01 10:32:53;;;;;;;0.30;0.23;;;16.70;99.90;;;;;;5091645;28;20664;-81
2022/11/01 10:35:25;;;;;;;1.17;0.50;;;16.70;99.90;;;;;;5110736;28;21085;-81
2022/11/01 10:37:57;;;;;;;0.40;0.30;;;16.80;99.90;;;;;;5107503;28;20662;-81
2022/11/01 10:40:28;;;;;;;0.40;0.20;;;16.80;99.90;;;;;;5106586;28;20651;-82
2022/11/01 10:42:55;;;;;;;0.40;0.40;;;16.80;99.90;;;;;;5090685;28;21054;-80
2022/11/01 10:45:22;;;;;;;0.50;0.43;;;16.90;99.90;;;;;;5090944;28;20677;-81
2022/11/01 10:47:53;;;;;;;0.30;0.30;;;16.90;99.90;;;;;;5109891;28;20715;-80
2022/11/01 10:50:25;;;;;;;0.47;0.47;;;16.90;99.90;;;;;;5093564;28;20612;-83
2022/11/01 10:52:56;;;;;;;0.30;0.20;;;16.90;99.90;;;;;;5110652;28;20746;-81
2022/11/01 10:55:28;;;;;;;0.80;0.40;;;16.90;99.90;;;;;;5093034;28;21050;-81
2022/11/01 10:57:59;;;;;;;0.40;0.40;;;16.90;99.90;;;;;;5094401;28;20620;-81
2022/11/01 11:00:27;;;;;;;3.20;1.23;;;16.80;99.90;;;;;;5110269;28;20631;-81
2022/11/01 11:02:57;;;;;;;0.30;0.20;;;16.90;99.90;;;;;;5106308;28;20651;-81
2022/11/01 11:05:28;;;;;;;5.60;0.50;;;16.90;98.50;;;;;;5090122;28;20621;-81
2022/11/01 11:07:56;;;;;;;0.50;0.47;;;16.90;98.60;;;;;;5093141;28;20635;-81
2022/11/01 11:10:25;;;;;;;1.27;0.37;;;16.80;98.80;;;;;;5108974;28;20712;-81
2022/11/01 11:12:57;;;;;;;0.43;0.40;;;16.90;98.90;;;;;;5090346;28;20663;-80
2022/11/01 11:15:35;;;;;;;2.33;1.00;;;16.90;98.50;;;;;;5100613;28;20643;-80
2022/11/01 11:18:07;;;;;;;0.73;0.73;;;16.80;98.70;;;;;;5093901;28;20616;-82
2022/11/01 11:20:36;;;;;;;0.70;0.70;;;16.90;99.00;;;;;;5095119;28;20662;-81
2022/11/01 11:23:03;;;;;;;0.37;0.37;;;16.90;98.30;;;;;;5109901;28;20628;-81
2022/11/01 11:25:35;;;;;;;0.87;0.80;;;17.00;98.30;;;;;;5109596;28;21101;-80
2022/11/01 11:28:03;;;;;;;0.50;0.50;;;17.00;98.40;;;;;;5109120;28;20616;-81
2022/11/01 11:30:32;;;;;;;0.70;0.70;;;17.00;98.30;;;;;;5107033;28;20607;-82
2022/11/01 11:33:00;;;;;;;0.63;0.43;;;17.00;98.40;;;;;;5110338;28;20751;-82
2022/11/01 11:35:31;;;;;;;1.10;0.60;;;17.10;98.90;;;;;;5109141;28;20627;-81
2022/11/01 11:38:01;;;;;;;0.70;0.30;;;17.10;98.80;;;;;;5107606;28;20638;-82
2022/11/01 11:40:42;;;;;;;0.37;0.37;;;17.10;98.20;;;;;;5092417;28;20615;-82
2022/11/01 11:43:22;;;;;;;0.60;0.40;;;17.20;98.30;;;;;;5090573;28;20628;-82
2022/11/01 11:46:04;;;;;;;0.50;0.50;;;17.20;97.30;;;;;;5089939;28;20716;-82
2022/11/01 11:48:31;;;;;;;0.57;0.50;;;17.20;98.10;;;;;;5092321;28;20628;-82
2022/11/01 11:51:02;;;;;;;0.40;0.40;;;17.10;96.90;;;;;;5090375;28;21043;-84
2022/11/01 11:53:32;;;;;;;0.77;0.73;;;17.00;97.20;;;;;;5091648;28;20738;-82
2022/11/01 11:56:01;;;;;;;0.40;0.40;;;17.00;97.80;;;;;;5109357;28;20754;-81
2022/11/01 11:58:33;;;;;;;0.50;0.50;;;17.00;96.70;;;;;;5093529;28;20657;-81
2022/11/01 12:01:04;;;;;;;0.30;0.30;;;17.00;97.30;;;;;;5100570;28;20657;-80
2022/11/01 12:03:38;;;;;;;0.77;0.77;;;17.00;96.60;;;;;;5089400;28;20629;-81
2022/11/01 12:06:08;;;;;;;0.70;0.50;;;16.90;97.10;;;;;;5103851;28;20628;-80
2022/11/01 12:08:44;;;;;;;0.97;0.50;;;16.90;97.50;;;;;;5090486;28;20628;-80
2022/11/01 12:11:11;;;;;;;0.50;0.50;;;16.90;96.60;;;;;;5089371;28;20632;-80
2022/11/01 12:13:41;;;;;;;0.50;0.50;;;16.90;96.80;;;;;;5107209;28;21181;-80
2022/11/01 12:16:21;;;;;;;0.30;0.20;;;16.80;97.10;;;;;;5092618;28;20711;-80
2022/11/01 12:18:51;;;;;;;0.50;0.50;;;16.80;97.50;;;;;;5106258;28;20623;-80
2022/11/01 12:21:22;;;;;;;0.87;0.40;;;16.70;97.80;;;;;;5091773;28;20621;-80
2022/11/01 12:23:53;;;;;;;1.03;0.60;;;16.70;97.90;;;;;;5099966;28;20716;-80
2022/11/01 12:26:23;;;;;;;0.70;0.40;;;16.70;97.70;;;;;;5109894;28;20616;-82
2022/11/01 12:28:58;;;;;;;0.50;0.30;;;16.60;97.90;;;;;;5107318;28;20627;-80
2022/11/01 12:31:26;;;;;;;0.70;0.57;;;16.60;97.90;;;;;;5098370;28;20624;-80
2022/11/01 12:33:59;;;;;;;0.50;0.40;;;16.60;97.60;;;;;;5111257;28;20667;-80
2022/11/01 12:36:31;;;;;;;0.80;0.50;;;16.70;98.00;;;;;;5105512;28;20631;-80
2022/11/01 12:39:08;;;;;;;2.20;0.50;;;16.70;98.20;;;;;;5092074;28;20624;-80
2022/11/01 12:41:42;;;;;;;0.40;0.40;;;16.80;98.20;;;;;;5105610;28;21158;-81
2022/11/01 12:44:23;;;;;;;0.57;0.47;;;16.90;98.20;;;;;;5105768;28;20634;-81
2022/11/01 12:46:56;;;;;;;0.60;0.30;;;17.00;97.60;;;;;;5089705;28;21274;-81
2022/11/01 12:49:30;;;;;;;4.63;1.17;;;17.10;97.20;;;;;;5097928;28;20613;-81
2022/11/01 12:52:03;;;;;;;0.50;0.50;;;17.10;97.60;;;;;;5094340;28;21315;-81
2022/11/01 12:54:36;;;;;;;0.53;0.53;;;17.10;97.90;;;;;;5109490;28;21466;-82
2022/11/01 12:57:03;;;;;;;0.73;0.67;;;;;;;;;;5090600;28;20651;-82
2022/11/01 12:59:35;;;;;;;0.30;0.30;;;17.30;97.60;;;;;;5100361;28;20620;-81
2022/11/01 13:02:16;;;;;;;1.57;0.80;;;17.30;97.30;;;;;;5110349;28;21193;-81
2022/11/01 13:04:49;;;;;;;0.30;0.30;;;17.30;96.30;;;;;;5094537;28;20621;-82
2022/11/01 13:07:29;;;;;;;0.40;0.40;;;17.30;96.10;;;;;;5092136;28;20628;-81
2022/11/01 13:10:06;;;;;;;0.40;0.40;;;17.30;96.70;;;;;;5108837;28;20608;-82